KJAC/JAC METAR and TAF weather

Enter ICAO airport designator
Station Type Date Time Source
KJAC METAR 2019/10/23 02:56 UTC NOAA

KJAC 230256Z 22018G31KT 10SM BKN047 BKN060 OVC070 08/M01 A3006 RMK AO2 PK WND 23031/0249 SLP181 60000 T00781006 56007


Station Type Date Time Source
KJAC Decoded METAR 2019/10/23 02:56 UTC NOAA

Jackson, Jackson Hole Airport, WY, United States (KJAC) 43-36N 110-44W
Oct 22, 2019 - 10:56 PM EDT / 2019.10.23 0256 UTC
Wind: from the SW (220 degrees) at 21 MPH (18 KT) gusting to 36 MPH (31 KT):0
Visibility: 10 mile(s):0
Sky conditions: overcast
Temperature: 46.0 F (7.8 C)
Dew Point: 30.9 F (-0.6 C)
Relative Humidity: 55%
Pressure (altimeter): 30.06 in. Hg (1017 hPa)
Pressure tendency: 0.02 inches (0.7 hPa) lower than three hours ago
ob: KJAC 230256Z 22018G31KT 10SM BKN047 BKN060 OVC070 08/M01 A3006 RMK AO2 PK WND 23031/0249 SLP181 60000 T00781006 56007
cycle: 3

Station Type Date Time Source
KJAC TAF 2019/10/22 18:36 UTC NOAA

TAF KJAC 221734Z 2218/2318 20016G25KT 5SM -RA BKN025
FM222100 20014G20KT P6SM VCSH BKN035
FM230200 23014G20KT P6SM SCT030 BKN050
FM231200 33008KT P6SM VCSH OVC030
AMD LTD TO CLD VIS AND WIND

Example: see airport list